sensor_id;sensor_type;location;lat;lon;timestamp;P1;durP1;ratioP1;P2;durP2;ratioP2
5937;SDS011;2994;51.220;4.412;2023-11-19T00:00:18;5.50;;;5.00;;
5937;SDS011;2994;51.220;4.412;2023-11-19T00:02:44;4.50;;;4.10;;
5937;SDS011;2994;51.220;4.412;2023-11-19T00:05:10;5.37;;;4.33;;
5937;SDS011;2994;51.220;4.412;2023-11-19T00:07:39;7.73;;;4.53;;
5937;SDS011;2994;51.220;4.412;2023-11-19T00:10:08;6.60;;;4.70;;
5937;SDS011;2994;51.220;4.412;2023-11-19T00:12:35;6.83;;;4.30;;
5937;SDS011;2994;51.220;4.412;2023-11-19T00:15:02;8.10;;;4.80;;
5937;SDS011;2994;51.220;4.412;2023-11-19T00:17:27;9.37;;;4.20;;
5937;SDS011;2994;51.220;4.412;2023-11-19T00:19:52;9.47;;;4.30;;
5937;SDS011;2994;51.220;4.412;2023-11-19T00:22:18;9.33;;;4.23;;
5937;SDS011;2994;51.220;4.412;2023-11-19T00:24:43;6.60;;;3.87;;
5937;SDS011;2994;51.220;4.412;2023-11-19T00:27:09;5.50;;;3.53;;
5937;SDS011;2994;51.220;4.412;2023-11-19T00:29:35;6.17;;;3.67;;
5937;SDS011;2994;51.220;4.412;2023-11-19T00:32:01;6.30;;;3.57;;
5937;SDS011;2994;51.220;4.412;2023-11-19T00:34:27;9.10;;;3.93;;
5937;SDS011;2994;51.220;4.412;2023-11-19T00:36:52;5.27;;;3.83;;
5937;SDS011;2994;51.220;4.412;2023-11-19T00:39:17;8.47;;;3.30;;
5937;SDS011;2994;51.220;4.412;2023-11-19T00:41:44;6.83;;;4.13;;
5937;SDS011;2994;51.220;4.412;2023-11-19T00:44:11;13.37;;;4.10;;
5937;SDS011;2994;51.220;4.412;2023-11-19T00:46:37;6.20;;;3.20;;
5937;SDS011;2994;51.220;4.412;2023-11-19T00:49:03;8.50;;;3.67;;
5937;SDS011;2994;51.220;4.412;2023-11-19T00:51:28;7.97;;;4.47;;
5937;SDS011;2994;51.220;4.412;2023-11-19T00:53:56;8.37;;;4.70;;
5937;SDS011;2994;51.220;4.412;2023-11-19T00:56:22;11.30;;;3.90;;
5937;SDS011;2994;51.220;4.412;2023-11-19T00:58:48;9.50;;;3.80;;
5937;SDS011;2994;51.220;4.412;2023-11-19T01:01:13;9.80;;;3.87;;
5937;SDS011;2994;51.220;4.412;2023-11-19T01:03:38;12.27;;;3.93;;
5937;SDS011;2994;51.220;4.412;2023-11-19T01:06:04;13.10;;;4.90;;
5937;SDS011;2994;51.220;4.412;2023-11-19T01:08:30;10.43;;;5.30;;
5937;SDS011;2994;51.220;4.412;2023-11-19T01:10:55;13.57;;;5.33;;
5937;SDS011;2994;51.220;4.412;2023-11-19T01:13:21;10.30;;;4.70;;
5937;SDS011;2994;51.220;4.412;2023-11-19T01:15:46;14.47;;;4.00;;
5937;SDS011;2994;51.220;4.412;2023-11-19T01:18:12;9.30;;;4.87;;
5937;SDS011;2994;51.220;4.412;2023-11-19T01:20:38;14.50;;;3.80;;
5937;SDS011;2994;51.220;4.412;2023-11-19T01:23:03;11.47;;;4.67;;
5937;SDS011;2994;51.220;4.412;2023-11-19T01:25:29;11.97;;;3.77;;
5937;SDS011;2994;51.220;4.412;2023-11-19T01:27:54;10.33;;;4.23;;
5937;SDS011;2994;51.220;4.412;2023-11-19T01:30:23;18.23;;;5.57;;
5937;SDS011;2994;51.220;4.412;2023-11-19T01:32:49;13.53;;;4.60;;
5937;SDS011;2994;51.220;4.412;2023-11-19T01:35:14;20.63;;;4.83;;
5937;SDS011;2994;51.220;4.412;2023-11-19T01:37:40;10.33;;;4.93;;
5937;SDS011;2994;51.220;4.412;2023-11-19T01:40:05;14.90;;;5.43;;
5937;SDS011;2994;51.220;4.412;2023-11-19T01:42:37;15.20;;;5.10;;
5937;SDS011;2994;51.220;4.412;2023-11-19T01:45:06;9.97;;;5.17;;
5937;SDS011;2994;51.220;4.412;2023-11-19T01:47:35;12.87;;;4.70;;
5937;SDS011;2994;51.220;4.412;2023-11-19T01:50:01;18.10;;;5.40;;
5937;SDS011;2994;51.220;4.412;2023-11-19T01:52:31;9.60;;;4.53;;
5937;SDS011;2994;51.220;4.412;2023-11-19T01:54:59;13.17;;;5.10;;
5937;SDS011;2994;51.220;4.412;2023-11-19T01:57:28;10.10;;;5.10;;
5937;SDS011;2994;51.220;4.412;2023-11-19T01:59:54;13.23;;;4.80;;
5937;SDS011;2994;51.220;4.412;2023-11-19T02:02:19;14.27;;;5.70;;
5937;SDS011;2994;51.220;4.412;2023-11-19T02:04:46;12.13;;;5.70;;
5937;SDS011;2994;51.220;4.412;2023-11-19T02:07:13;16.93;;;5.70;;
5937;SDS011;2994;51.220;4.412;2023-11-19T02:09:42;12.23;;;5.83;;
5937;SDS011;2994;51.220;4.412;2023-11-19T02:12:07;17.27;;;5.30;;
5937;SDS011;2994;51.220;4.412;2023-11-19T02:14:33;14.80;;;4.97;;
5937;SDS011;2994;51.220;4.412;2023-11-19T02:16:58;19.27;;;5.50;;
5937;SDS011;2994;51.220;4.412;2023-11-19T02:19:24;11.47;;;4.47;;
5937;SDS011;2994;51.220;4.412;2023-11-19T02:21:49;11.20;;;4.40;;
5937;SDS011;2994;51.220;4.412;2023-11-19T02:24:14;19.10;;;4.70;;
5937;SDS011;2994;51.220;4.412;2023-11-19T02:26:49;15.43;;;4.70;;
5937;SDS011;2994;51.220;4.412;2023-11-19T02:29:21;17.80;;;5.97;;
5937;SDS011;2994;51.220;4.412;2023-11-19T02:31:47;13.87;;;5.70;;
5937;SDS011;2994;51.220;4.412;2023-11-19T02:34:12;15.03;;;4.93;;
5937;SDS011;2994;51.220;4.412;2023-11-19T02:36:38;13.60;;;6.13;;
5937;SDS011;2994;51.220;4.412;2023-11-19T02:39:06;18.33;;;6.30;;
5937;SDS011;2994;51.220;4.412;2023-11-19T02:41:35;23.00;;;5.77;;
5937;SDS011;2994;51.220;4.412;2023-11-19T02:44:00;24.27;;;8.30;;
5937;SDS011;2994;51.220;4.412;2023-11-19T02:46:26;23.73;;;7.70;;
5937;SDS011;2994;51.220;4.412;2023-11-19T02:48:51;14.00;;;5.70;;
5937;SDS011;2994;51.220;4.412;2023-11-19T02:51:17;25.73;;;7.27;;
5937;SDS011;2994;51.220;4.412;2023-11-19T02:53:43;24.23;;;6.40;;
5937;SDS011;2994;51.220;4.412;2023-11-19T02:56:09;16.97;;;4.77;;
5937;SDS011;2994;51.220;4.412;2023-11-19T02:58:45;16.03;;;6.40;;
5937;SDS011;2994;51.220;4.412;2023-11-19T03:01:11;21.27;;;7.37;;
5937;SDS011;2994;51.220;4.412;2023-11-19T03:03:48;19.70;;;6.50;;
5937;SDS011;2994;51.220;4.412;2023-11-19T03:06:19;14.70;;;5.27;;
5937;SDS011;2994;51.220;4.412;2023-11-19T03:08:45;19.33;;;6.23;;
5937;SDS011;2994;51.220;4.412;2023-11-19T03:11:10;22.33;;;6.77;;
5937;SDS011;2994;51.220;4.412;2023-11-19T03:13:35;14.63;;;6.70;;
5937;SDS011;2994;51.220;4.412;2023-11-19T03:16:01;20.17;;;6.73;;
5937;SDS011;2994;51.220;4.412;2023-11-19T03:18:26;13.63;;;5.87;;
5937;SDS011;2994;51.220;4.412;2023-11-19T03:20:53;22.30;;;7.30;;
5937;SDS011;2994;51.220;4.412;2023-11-19T03:23:19;22.47;;;5.80;;
5937;SDS011;2994;51.220;4.412;2023-11-19T03:25:44;17.20;;;6.20;;
5937;SDS011;2994;51.220;4.412;2023-11-19T03:28:09;20.43;;;6.30;;
5937;SDS011;2994;51.220;4.412;2023-11-19T03:30:36;18.93;;;6.87;;
5937;SDS011;2994;51.220;4.412;2023-11-19T03:33:01;19.70;;;7.23;;
5937;SDS011;2994;51.220;4.412;2023-11-19T03:35:27;23.63;;;6.77;;
5937;SDS011;2994;51.220;4.412;2023-11-19T03:37:53;18.20;;;5.40;;
5937;SDS011;2994;51.220;4.412;2023-11-19T03:40:18;15.37;;;7.00;;
5937;SDS011;2994;51.220;4.412;2023-11-19T03:42:47;18.20;;;6.40;;
5937;SDS011;2994;51.220;4.412;2023-11-19T03:45:12;17.20;;;6.63;;
5937;SDS011;2994;51.220;4.412;2023-11-19T03:47:39;23.57;;;6.77;;
5937;SDS011;2994;51.220;4.412;2023-11-19T03:50:05;16.07;;;6.80;;
5937;SDS011;2994;51.220;4.412;2023-11-19T03:52:32;20.50;;;6.57;;
5937;SDS011;2994;51.220;4.412;2023-11-19T03:54:58;17.17;;;5.77;;
5937;SDS011;2994;51.220;4.412;2023-11-19T03:57:24;21.53;;;7.67;;
5937;SDS011;2994;51.220;4.412;2023-11-19T03:59:49;19.17;;;6.07;;
5937;SDS011;2994;51.220;4.412;2023-11-19T04:02:15;19.57;;;6.23;;
5937;SDS011;2994;51.220;4.412;2023-11-19T04:04:42;15.93;;;6.07;;
5937;SDS011;2994;51.220;4.412;2023-11-19T04:07:08;21.90;;;6.40;;
5937;SDS011;2994;51.220;4.412;2023-11-19T04:09:34;20.30;;;6.30;;
5937;SDS011;2994;51.220;4.412;2023-11-19T04:11:59;17.63;;;6.13;;
5937;SDS011;2994;51.220;4.412;2023-11-19T04:14:25;19.23;;;5.30;;
5937;SDS011;2994;51.220;4.412;2023-11-19T04:16:51;17.03;;;6.40;;
5937;SDS011;2994;51.220;4.412;2023-11-19T04:19:17;19.10;;;6.87;;
5937;SDS011;2994;51.220;4.412;2023-11-19T04:21:45;20.90;;;6.13;;
5937;SDS011;2994;51.220;4.412;2023-11-19T04:24:12;18.27;;;6.83;;
5937;SDS011;2994;51.220;4.412;2023-11-19T04:26:42;23.60;;;7.67;;
5937;SDS011;2994;51.220;4.412;2023-11-19T04:29:10;15.07;;;5.63;;
5937;SDS011;2994;51.220;4.412;2023-11-19T04:31:37;20.13;;;6.33;;
5937;SDS011;2994;51.220;4.412;2023-11-19T04:34:02;20.60;;;6.90;;
5937;SDS011;2994;51.220;4.412;2023-11-19T04:36:27;23.50;;;6.73;;
5937;SDS011;2994;51.220;4.412;2023-11-19T04:38:54;18.03;;;6.33;;
5937;SDS011;2994;51.220;4.412;2023-11-19T04:41:20;21.17;;;6.20;;
5937;SDS011;2994;51.220;4.412;2023-11-19T04:43:45;21.77;;;7.37;;
5937;SDS011;2994;51.220;4.412;2023-11-19T04:46:11;20.67;;;6.37;;
5937;SDS011;2994;51.220;4.412;2023-11-19T04:48:36;20.83;;;6.23;;
5937;SDS011;2994;51.220;4.412;2023-11-19T04:51:04;24.13;;;6.50;;
5937;SDS011;2994;51.220;4.412;2023-11-19T04:53:30;22.67;;;7.00;;
5937;SDS011;2994;51.220;4.412;2023-11-19T04:55:55;23.10;;;6.57;;
5937;SDS011;2994;51.220;4.412;2023-11-19T04:58:21;20.83;;;8.27;;
5937;SDS011;2994;51.220;4.412;2023-11-19T05:00:46;31.57;;;6.83;;
5937;SDS011;2994;51.220;4.412;2023-11-19T05:03:12;18.10;;;6.07;;
5937;SDS011;2994;51.220;4.412;2023-11-19T05:05:38;20.20;;;6.60;;
5937;SDS011;2994;51.220;4.412;2023-11-19T05:08:03;18.43;;;6.20;;
5937;SDS011;2994;51.220;4.412;2023-11-19T05:10:30;18.33;;;6.83;;
5937;SDS011;2994;51.220;4.412;2023-11-19T05:12:55;18.07;;;6.40;;
5937;SDS011;2994;51.220;4.412;2023-11-19T05:15:21;19.87;;;5.80;;
5937;SDS011;2994;51.220;4.412;2023-11-19T05:17:47;21.07;;;6.27;;
5937;SDS011;2994;51.220;4.412;2023-11-19T05:20:13;22.10;;;5.13;;
5937;SDS011;2994;51.220;4.412;2023-11-19T05:22:41;21.07;;;7.03;;
5937;SDS011;2994;51.220;4.412;2023-11-19T05:25:07;22.23;;;6.60;;
5937;SDS011;2994;51.220;4.412;2023-11-19T05:27:36;18.73;;;6.60;;
5937;SDS011;2994;51.220;4.412;2023-11-19T05:30:03;17.00;;;5.93;;
5937;SDS011;2994;51.220;4.412;2023-11-19T05:32:32;22.70;;;6.50;;
5937;SDS011;2994;51.220;4.412;2023-11-19T05:34:57;17.77;;;6.80;;
5937;SDS011;2994;51.220;4.412;2023-11-19T05:37:23;19.77;;;7.27;;
5937;SDS011;2994;51.220;4.412;2023-11-19T05:39:48;19.23;;;6.10;;
5937;SDS011;2994;51.220;4.412;2023-11-19T05:42:14;22.43;;;6.57;;
5937;SDS011;2994;51.220;4.412;2023-11-19T05:44:39;21.20;;;6.80;;
5937;SDS011;2994;51.220;4.412;2023-11-19T05:47:05;24.13;;;6.87;;
5937;SDS011;2994;51.220;4.412;2023-11-19T05:49:30;24.17;;;6.90;;
5937;SDS011;2994;51.220;4.412;2023-11-19T05:51:56;20.57;;;6.43;;
5937;SDS011;2994;51.220;4.412;2023-11-19T05:54:21;23.17;;;7.20;;
5937;SDS011;2994;51.220;4.412;2023-11-19T05:56:47;25.23;;;7.50;;
5937;SDS011;2994;51.220;4.412;2023-11-19T05:59:14;17.20;;;6.80;;
5937;SDS011;2994;51.220;4.412;2023-11-19T06:01:42;21.60;;;6.40;;
5937;SDS011;2994;51.220;4.412;2023-11-19T06:04:08;25.10;;;6.10;;
5937;SDS011;2994;51.220;4.412;2023-11-19T06:06:35;28.80;;;8.70;;
5937;SDS011;2994;51.220;4.412;2023-11-19T06:09:01;21.97;;;6.97;;
5937;SDS011;2994;51.220;4.412;2023-11-19T06:11:27;20.90;;;7.20;;
5937;SDS011;2994;51.220;4.412;2023-11-19T06:13:52;17.13;;;6.37;;
5937;SDS011;2994;51.220;4.412;2023-11-19T06:16:18;19.27;;;5.00;;
5937;SDS011;2994;51.220;4.412;2023-11-19T06:18:44;20.70;;;6.33;;
5937;SDS011;2994;51.220;4.412;2023-11-19T06:21:09;20.57;;;6.30;;
5937;SDS011;2994;51.220;4.412;2023-11-19T06:23:35;18.37;;;5.63;;
5937;SDS011;2994;51.220;4.412;2023-11-19T06:26:01;21.83;;;7.33;;
5937;SDS011;2994;51.220;4.412;2023-11-19T06:28:26;19.90;;;5.93;;
5937;SDS011;2994;51.220;4.412;2023-11-19T06:30:52;26.50;;;7.20;;
5937;SDS011;2994;51.220;4.412;2023-11-19T06:33:17;25.43;;;6.77;;
5937;SDS011;2994;51.220;4.412;2023-11-19T06:35:43;20.40;;;6.70;;
5937;SDS011;2994;51.220;4.412;2023-11-19T06:38:08;18.33;;;5.30;;
5937;SDS011;2994;51.220;4.412;2023-11-19T06:40:34;14.90;;;5.10;;
5937;SDS011;2994;51.220;4.412;2023-11-19T06:43:03;26.37;;;6.83;;
5937;SDS011;2994;51.220;4.412;2023-11-19T06:45:29;20.20;;;6.80;;
5937;SDS011;2994;51.220;4.412;2023-11-19T06:47:55;19.63;;;7.57;;
5937;SDS011;2994;51.220;4.412;2023-11-19T06:50:20;32.13;;;7.33;;
5937;SDS011;2994;51.220;4.412;2023-11-19T06:52:46;19.37;;;6.70;;
5937;SDS011;2994;51.220;4.412;2023-11-19T06:55:12;17.50;;;6.90;;
5937;SDS011;2994;51.220;4.412;2023-11-19T06:57:37;15.37;;;5.53;;
5937;SDS011;2994;51.220;4.412;2023-11-19T07:00:03;19.07;;;5.07;;
5937;SDS011;2994;51.220;4.412;2023-11-19T07:02:30;15.10;;;5.57;;
5937;SDS011;2994;51.220;4.412;2023-11-19T07:04:56;23.20;;;5.90;;
5937;SDS011;2994;51.220;4.412;2023-11-19T07:07:22;17.37;;;6.43;;
5937;SDS011;2994;51.220;4.412;2023-11-19T07:09:47;22.43;;;6.83;;
5937;SDS011;2994;51.220;4.412;2023-11-19T07:12:13;21.27;;;7.00;;
5937;SDS011;2994;51.220;4.412;2023-11-19T07:14:39;14.90;;;6.20;;
5937;SDS011;2994;51.220;4.412;2023-11-19T07:17:05;20.13;;;6.00;;
5937;SDS011;2994;51.220;4.412;2023-11-19T07:19:31;20.40;;;5.93;;
5937;SDS011;2994;51.220;4.412;2023-11-19T07:21:56;22.33;;;6.87;;
5937;SDS011;2994;51.220;4.412;2023-11-19T07:24:22;22.77;;;6.90;;
5937;SDS011;2994;51.220;4.412;2023-11-19T07:26:47;18.63;;;5.13;;
5937;SDS011;2994;51.220;4.412;2023-11-19T07:29:13;20.70;;;6.53;;
5937;SDS011;2994;51.220;4.412;2023-11-19T07:31:42;25.87;;;7.37;;
5937;SDS011;2994;51.220;4.412;2023-11-19T07:34:09;17.60;;;6.77;;
5937;SDS011;2994;51.220;4.412;2023-11-19T07:36:36;23.33;;;6.77;;
5937;SDS011;2994;51.220;4.412;2023-11-19T07:39:02;24.30;;;8.27;;
5937;SDS011;2994;51.220;4.412;2023-11-19T07:41:29;18.50;;;5.97;;
5937;SDS011;2994;51.220;4.412;2023-11-19T07:43:55;15.13;;;6.10;;
5937;SDS011;2994;51.220;4.412;2023-11-19T07:46:21;15.90;;;6.27;;
5937;SDS011;2994;51.220;4.412;2023-11-19T07:48:46;25.47;;;7.70;;
5937;SDS011;2994;51.220;4.412;2023-11-19T07:51:12;19.40;;;6.10;;
5937;SDS011;2994;51.220;4.412;2023-11-19T07:53:38;20.73;;;7.63;;
5937;SDS011;2994;51.220;4.412;2023-11-19T07:56:05;22.90;;;5.83;;
5937;SDS011;2994;51.220;4.412;2023-11-19T07:58:32;26.87;;;8.17;;
5937;SDS011;2994;51.220;4.412;2023-11-19T08:00:57;18.40;;;6.70;;
5937;SDS011;2994;51.220;4.412;2023-11-19T08:03:23;21.33;;;9.13;;
5937;SDS011;2994;51.220;4.412;2023-11-19T08:05:48;23.07;;;6.47;;
5937;SDS011;2994;51.220;4.412;2023-11-19T08:08:14;21.30;;;7.23;;
5937;SDS011;2994;51.220;4.412;2023-11-19T08:10:40;19.70;;;6.93;;
5937;SDS011;2994;51.220;4.412;2023-11-19T08:13:05;22.87;;;6.63;;
5937;SDS011;2994;51.220;4.412;2023-11-19T08:15:31;20.60;;;6.67;;
5937;SDS011;2994;51.220;4.412;2023-11-19T08:17:57;19.13;;;6.20;;
5937;SDS011;2994;51.220;4.412;2023-11-19T08:20:22;13.07;;;4.60;;
5937;SDS011;2994;51.220;4.412;2023-11-19T08:22:48;25.43;;;7.83;;
5937;SDS011;2994;51.220;4.412;2023-11-19T08:25:14;19.53;;;6.50;;
5937;SDS011;2994;51.220;4.412;2023-11-19T08:27:39;21.67;;;6.10;;
5937;SDS011;2994;51.220;4.412;2023-11-19T08:30:05;21.20;;;6.10;;
5937;SDS011;2994;51.220;4.412;2023-11-19T08:32:31;22.73;;;6.47;;
5937;SDS011;2994;51.220;4.412;2023-11-19T08:34:57;24.93;;;7.10;;
5937;SDS011;2994;51.220;4.412;2023-11-19T08:37:22;16.20;;;5.77;;
5937;SDS011;2994;51.220;4.412;2023-11-19T08:39:48;17.47;;;6.03;;
5937;SDS011;2994;51.220;4.412;2023-11-19T08:42:14;17.63;;;6.57;;
5937;SDS011;2994;51.220;4.412;2023-11-19T08:44:39;21.37;;;5.67;;
5937;SDS011;2994;51.220;4.412;2023-11-19T08:47:08;15.40;;;6.20;;
5937;SDS011;2994;51.220;4.412;2023-11-19T08:49:34;19.23;;;6.47;;
5937;SDS011;2994;51.220;4.412;2023-11-19T08:52:00;20.97;;;6.63;;
5937;SDS011;2994;51.220;4.412;2023-11-19T08:54:25;25.47;;;6.67;;
5937;SDS011;2994;51.220;4.412;2023-11-19T08:56:51;23.00;;;8.03;;
5937;SDS011;2994;51.220;4.412;2023-11-19T08:59:16;18.60;;;5.67;;
5937;SDS011;2994;51.220;4.412;2023-11-19T09:01:41;14.87;;;5.30;;
5937;SDS011;2994;51.220;4.412;2023-11-19T09:04:07;28.03;;;7.90;;
5937;SDS011;2994;51.220;4.412;2023-11-19T09:06:32;21.77;;;8.13;;
5937;SDS011;2994;51.220;4.412;2023-11-19T09:08:58;20.30;;;6.40;;
5937;SDS011;2994;51.220;4.412;2023-11-19T09:11:27;18.60;;;7.30;;
5937;SDS011;2994;51.220;4.412;2023-11-19T09:13:53;17.80;;;5.50;;
5937;SDS011;2994;51.220;4.412;2023-11-19T09:16:18;14.80;;;5.03;;
5937;SDS011;2994;51.220;4.412;2023-11-19T09:18:44;16.17;;;7.10;;
5937;SDS011;2994;51.220;4.412;2023-11-19T09:21:12;22.10;;;6.50;;
5937;SDS011;2994;51.220;4.412;2023-11-19T09:23:38;17.40;;;5.00;;
5937;SDS011;2994;51.220;4.412;2023-11-19T09:26:13;13.67;;;5.63;;
5937;SDS011;2994;51.220;4.412;2023-11-19T09:28:38;24.00;;;7.17;;
5937;SDS011;2994;51.220;4.412;2023-11-19T09:31:16;22.77;;;5.73;;
5937;SDS011;2994;51.220;4.412;2023-11-19T09:33:42;18.17;;;7.67;;
5937;SDS011;2994;51.220;4.412;2023-11-19T09:36:08;12.97;;;6.60;;
5937;SDS011;2994;51.220;4.412;2023-11-19T09:38:35;25.50;;;6.60;;
5937;SDS011;2994;51.220;4.412;2023-11-19T09:41:06;21.60;;;6.57;;
5937;SDS011;2994;51.220;4.412;2023-11-19T09:43:37;14.07;;;5.30;;
5937;SDS011;2994;51.220;4.412;2023-11-19T09:46:07;14.30;;;5.20;;
5937;SDS011;2994;51.220;4.412;2023-11-19T09:48:38;18.80;;;6.70;;
5937;SDS011;2994;51.220;4.412;2023-11-19T09:51:07;20.17;;;6.03;;
5937;SDS011;2994;51.220;4.412;2023-11-19T09:53:37;20.90;;;6.20;;
5937;SDS011;2994;51.220;4.412;2023-11-19T09:56:06;14.77;;;6.57;;
5937;SDS011;2994;51.220;4.412;2023-11-19T09:58:32;15.60;;;5.20;;
5937;SDS011;2994;51.220;4.412;2023-11-19T10:00:58;13.30;;;5.40;;
5937;SDS011;2994;51.220;4.412;2023-11-19T10:03:27;20.80;;;7.20;;
5937;SDS011;2994;51.220;4.412;2023-11-19T10:05:57;18.23;;;6.30;;
5937;SDS011;2994;51.220;4.412;2023-11-19T10:08:23;15.40;;;5.27;;
5937;SDS011;2994;51.220;4.412;2023-11-19T10:10:48;15.57;;;6.03;;
5937;SDS011;2994;51.220;4.412;2023-11-19T10:13:14;17.60;;;6.60;;
5937;SDS011;2994;51.220;4.412;2023-11-19T10:15:39;25.07;;;5.80;;
5937;SDS011;2994;51.220;4.412;2023-11-19T10:18:05;15.87;;;4.33;;
5937;SDS011;2994;51.220;4.412;2023-11-19T10:20:37;19.53;;;6.53;;
5937;SDS011;2994;51.220;4.412;2023-11-19T10:23:05;15.37;;;4.93;;
5937;SDS011;2994;51.220;4.412;2023-11-19T10:25:31;15.50;;;5.00;;
5937;SDS011;2994;51.220;4.412;2023-11-19T10:27:57;16.43;;;5.50;;
5937;SDS011;2994;51.220;4.412;2023-11-19T10:30:24;15.73;;;5.13;;
5937;SDS011;2994;51.220;4.412;2023-11-19T10:33:13;15.13;;;4.87;;
5937;SDS011;2994;51.220;4.412;2023-11-19T10:38:21;13.83;;;5.40;;
5937;SDS011;2994;51.220;4.412;2023-11-19T10:40:47;12.93;;;4.27;;
5937;SDS011;2994;51.220;4.412;2023-11-19T10:43:13;15.10;;;5.23;;
5937;SDS011;2994;51.220;4.412;2023-11-19T10:45:39;19.60;;;5.70;;
5937;SDS011;2994;51.220;4.412;2023-11-19T10:48:05;17.03;;;5.60;;
5937;SDS011;2994;51.220;4.412;2023-11-19T10:50:35;16.73;;;4.70;;
5937;SDS011;2994;51.220;4.412;2023-11-19T10:53:02;17.13;;;6.20;;
5937;SDS011;2994;51.220;4.412;2023-11-19T10:55:34;18.40;;;5.50;;
5937;SDS011;2994;51.220;4.412;2023-11-19T10:58:44;14.93;;;5.40;;
5937;SDS011;2994;51.220;4.412;2023-11-19T11:01:13;13.23;;;4.63;;
5937;SDS011;2994;51.220;4.412;2023-11-19T11:03:49;17.37;;;5.50;;
5937;SDS011;2994;51.220;4.412;2023-11-19T11:06:16;15.83;;;5.07;;
5937;SDS011;2994;51.220;4.412;2023-11-19T11:08:43;17.97;;;5.37;;
5937;SDS011;2994;51.220;4.412;2023-11-19T11:11:10;12.00;;;4.23;;
5937;SDS011;2994;51.220;4.412;2023-11-19T11:13:41;14.63;;;5.00;;
5937;SDS011;2994;51.220;4.412;2023-11-19T11:16:07;18.30;;;5.27;;
5937;SDS011;2994;51.220;4.412;2023-11-19T11:18:33;14.97;;;5.30;;
5937;SDS011;2994;51.220;4.412;2023-11-19T11:23:47;16.77;;;5.90;;
5937;SDS011;2994;51.220;4.412;2023-11-19T11:26:35;18.07;;;6.03;;
5937;SDS011;2994;51.220;4.412;2023-11-19T11:34:58;16.50;;;4.73;;
5937;SDS011;2994;51.220;4.412;2023-11-19T11:40:04;17.40;;;5.97;;
5937;SDS011;2994;51.220;4.412;2023-11-19T11:42:35;12.40;;;4.83;;
5937;SDS011;2994;51.220;4.412;2023-11-19T11:45:05;14.33;;;4.90;;
5937;SDS011;2994;51.220;4.412;2023-11-19T11:50:10;16.00;;;5.73;;
5937;SDS011;2994;51.220;4.412;2023-11-19T11:55:24;11.87;;;4.20;;
5937;SDS011;2994;51.220;4.412;2023-11-19T11:57:49;12.17;;;4.30;;
5937;SDS011;2994;51.220;4.412;2023-11-19T12:00:21;16.37;;;5.30;;
5937;SDS011;2994;51.220;4.412;2023-11-19T12:02:51;12.73;;;5.00;;
5937;SDS011;2994;51.220;4.412;2023-11-19T12:05:16;13.37;;;4.27;;
5937;SDS011;2994;51.220;4.412;2023-11-19T12:07:44;10.27;;;4.67;;
5937;SDS011;2994;51.220;4.412;2023-11-19T12:10:28;18.30;;;4.40;;
5937;SDS011;2994;51.220;4.412;2023-11-19T12:13:00;15.53;;;5.47;;
5937;SDS011;2994;51.220;4.412;2023-11-19T12:15:27;14.83;;;5.40;;
5937;SDS011;2994;51.220;4.412;2023-11-19T12:17:56;20.63;;;6.40;;
5937;SDS011;2994;51.220;4.412;2023-11-19T12:20:22;17.10;;;6.03;;
5937;SDS011;2994;51.220;4.412;2023-11-19T12:22:51;17.77;;;5.40;;
5937;SDS011;2994;51.220;4.412;2023-11-19T12:25:18;15.20;;;5.50;;
5937;SDS011;2994;51.220;4.412;2023-11-19T12:27:48;15.47;;;4.90;;
5937;SDS011;2994;51.220;4.412;2023-11-19T12:30:24;15.47;;;5.20;;
5937;SDS011;2994;51.220;4.412;2023-11-19T12:32:50;16.40;;;5.07;;
5937;SDS011;2994;51.220;4.412;2023-11-19T12:35:18;14.57;;;5.73;;
5937;SDS011;2994;51.220;4.412;2023-11-19T12:37:48;10.50;;;5.50;;
5937;SDS011;2994;51.220;4.412;2023-11-19T12:40:15;16.80;;;5.70;;
5937;SDS011;2994;51.220;4.412;2023-11-19T12:42:48;17.10;;;4.83;;
5937;SDS011;2994;51.220;4.412;2023-11-19T12:45:14;15.37;;;5.13;;
5937;SDS011;2994;51.220;4.412;2023-11-19T12:47:41;13.87;;;5.03;;
5937;SDS011;2994;51.220;4.412;2023-11-19T12:50:07;22.00;;;5.90;;
5937;SDS011;2994;51.220;4.412;2023-11-19T12:52:34;11.57;;;5.60;;
5937;SDS011;2994;51.220;4.412;2023-11-19T12:55:04;10.97;;;5.17;;
5937;SDS011;2994;51.220;4.412;2023-11-19T12:57:41;10.57;;;5.17;;
5937;SDS011;2994;51.220;4.412;2023-11-19T13:00:07;14.77;;;4.77;;
5937;SDS011;2994;51.220;4.412;2023-11-19T13:02:48;15.37;;;5.60;;
5937;SDS011;2994;51.220;4.412;2023-11-19T13:08:06;14.10;;;5.07;;
5937;SDS011;2994;51.220;4.412;2023-11-19T13:10:32;13.80;;;4.90;;
5937;SDS011;2994;51.220;4.412;2023-11-19T13:13:10;11.23;;;4.77;;
5937;SDS011;2994;51.220;4.412;2023-11-19T13:15:35;16.67;;;5.40;;
5937;SDS011;2994;51.220;4.412;2023-11-19T13:18:01;18.57;;;6.93;;
5937;SDS011;2994;51.220;4.412;2023-11-19T13:20:27;15.03;;;6.03;;
5937;SDS011;2994;51.220;4.412;2023-11-19T13:22:57;13.87;;;5.33;;
5937;SDS011;2994;51.220;4.412;2023-11-19T13:25:27;10.90;;;4.37;;
5937;SDS011;2994;51.220;4.412;2023-11-19T13:27:53;16.20;;;4.60;;
5937;SDS011;2994;51.220;4.412;2023-11-19T13:30:19;11.10;;;4.60;;
5937;SDS011;2994;51.220;4.412;2023-11-19T13:32:47;17.10;;;4.43;;
5937;SDS011;2994;51.220;4.412;2023-11-19T13:35:16;12.77;;;5.40;;
5937;SDS011;2994;51.220;4.412;2023-11-19T13:37:42;16.67;;;4.10;;
5937;SDS011;2994;51.220;4.412;2023-11-19T13:40:09;14.20;;;4.80;;
5937;SDS011;2994;51.220;4.412;2023-11-19T13:42:38;10.80;;;4.90;;
5937;SDS011;2994;51.220;4.412;2023-11-19T13:45:07;10.80;;;4.07;;
5937;SDS011;2994;51.220;4.412;2023-11-19T13:47:37;16.93;;;5.47;;
5937;SDS011;2994;51.220;4.412;2023-11-19T13:50:09;12.13;;;4.97;;
5937;SDS011;2994;51.220;4.412;2023-11-19T13:52:39;21.43;;;6.20;;
5937;SDS011;2994;51.220;4.412;2023-11-19T13:55:06;14.00;;;5.80;;
5937;SDS011;2994;51.220;4.412;2023-11-19T13:57:33;15.60;;;5.50;;
5937;SDS011;2994;51.220;4.412;2023-11-19T13:59:59;13.57;;;4.70;;
5937;SDS011;2994;51.220;4.412;2023-11-19T14:02:25;11.60;;;4.40;;
5937;SDS011;2994;51.220;4.412;2023-11-19T14:04:50;16.00;;;5.40;;
5937;SDS011;2994;51.220;4.412;2023-11-19T14:07:16;19.00;;;6.03;;
5937;SDS011;2994;51.220;4.412;2023-11-19T14:09:42;16.70;;;4.03;;
5937;SDS011;2994;51.220;4.412;2023-11-19T14:12:07;14.40;;;4.93;;
5937;SDS011;2994;51.220;4.412;2023-11-19T14:14:34;16.27;;;4.50;;
5937;SDS011;2994;51.220;4.412;2023-11-19T14:17:01;18.17;;;5.20;;
5937;SDS011;2994;51.220;4.412;2023-11-19T14:19:28;12.93;;;4.83;;
5937;SDS011;2994;51.220;4.412;2023-11-19T14:21:53;15.00;;;5.27;;
5937;SDS011;2994;51.220;4.412;2023-11-19T14:24:19;21.00;;;5.97;;
5937;SDS011;2994;51.220;4.412;2023-11-19T14:26:45;16.37;;;4.67;;
5937;SDS011;2994;51.220;4.412;2023-11-19T14:29:12;19.33;;;5.50;;
5937;SDS011;2994;51.220;4.412;2023-11-19T14:31:37;14.37;;;6.03;;
5937;SDS011;2994;51.220;4.412;2023-11-19T14:34:03;20.70;;;5.97;;
5937;SDS011;2994;51.220;4.412;2023-11-19T14:36:28;13.87;;;5.10;;
5937;SDS011;2994;51.220;4.412;2023-11-19T14:38:54;16.50;;;5.50;;
5937;SDS011;2994;51.220;4.412;2023-11-19T14:41:19;14.83;;;5.03;;
5937;SDS011;2994;51.220;4.412;2023-11-19T14:43:45;12.67;;;4.77;;
5937;SDS011;2994;51.220;4.412;2023-11-19T14:46:10;14.70;;;5.20;;
5937;SDS011;2994;51.220;4.412;2023-11-19T14:48:35;14.43;;;4.57;;
5937;SDS011;2994;51.220;4.412;2023-11-19T14:51:01;14.50;;;4.60;;
5937;SDS011;2994;51.220;4.412;2023-11-19T14:53:28;12.27;;;5.23;;
5937;SDS011;2994;51.220;4.412;2023-11-19T14:55:53;16.90;;;5.43;;
5937;SDS011;2994;51.220;4.412;2023-11-19T14:58:19;10.90;;;4.07;;
5937;SDS011;2994;51.220;4.412;2023-11-19T15:00:45;17.43;;;5.60;;
5937;SDS011;2994;51.220;4.412;2023-11-19T15:03:10;13.33;;;4.87;;
5937;SDS011;2994;51.220;4.412;2023-11-19T15:05:37;14.90;;;4.80;;
5937;SDS011;2994;51.220;4.412;2023-11-19T15:08:02;14.10;;;5.10;;
5937;SDS011;2994;51.220;4.412;2023-11-19T15:10:28;18.00;;;4.63;;
5937;SDS011;2994;51.220;4.412;2023-11-19T15:12:53;12.50;;;4.87;;
5937;SDS011;2994;51.220;4.412;2023-11-19T15:15:19;15.10;;;4.60;;
5937;SDS011;2994;51.220;4.412;2023-11-19T15:17:45;14.27;;;5.40;;
5937;SDS011;2994;51.220;4.412;2023-11-19T15:20:13;17.43;;;5.50;;
5937;SDS011;2994;51.220;4.412;2023-11-19T15:22:43;13.83;;;5.23;;